sensor_id;sensor_type;location;lat;lon;timestamp;pressure;altitude;pressure_sealevel;temperature;humidity
74346;BME280;62776;50.518;6.732;2023-07-31T03:17:49;96197.75;;;17.01;100.00
74346;BME280;62776;50.518;6.732;2023-07-31T03:20:35;96196.88;;;17.01;100.00
74346;BME280;62776;50.518;6.732;2023-07-31T03:23:22;96194.47;;;16.96;100.00
74346;BME280;62776;50.518;6.732;2023-07-31T03:26:08;96194.38;;;16.98;100.00
74346;BME280;62776;50.518;6.732;2023-07-31T03:29:17;96195.81;;;16.85;100.00
74346;BME280;62776;50.518;6.732;2023-07-31T03:31:48;96200.44;;;17.00;100.00
74346;BME280;62776;50.518;6.732;2023-07-31T03:34:34;96191.72;;;16.99;100.00
74346;BME280;62776;50.518;6.732;2023-07-31T03:37:22;96183.88;;;16.98;100.00
74346;BME280;62776;50.518;6.732;2023-07-31T03:40:09;96181.22;;;16.99;100.00
74346;BME280;62776;50.518;6.732;2023-07-31T03:43:09;96183.84;;;16.99;100.00
74346;BME280;62776;50.518;6.732;2023-07-31T03:46:01;96175.19;;;16.97;100.00
74346;BME280;62776;50.518;6.732;2023-07-31T03:48:50;96172.34;;;17.02;100.00
74346;BME280;62776;50.518;6.732;2023-07-31T03:51:38;96173.25;;;17.01;100.00
74346;BME280;62776;50.518;6.732;2023-07-31T03:54:34;96163.63;;;17.01;100.00
74346;BME280;62776;50.518;6.732;2023-07-31T03:57:22;96157.63;;;16.98;100.00
74346;BME280;62776;50.518;6.732;2023-07-31T04:00:12;96155.97;;;16.95;100.00
74346;BME280;62776;50.518;6.732;2023-07-31T04:03:06;96161.63;;;16.86;100.00
74346;BME280;62776;50.518;6.732;2023-07-31T04:05:55;96156.44;;;16.85;100.00
74346;BME280;62776;50.518;6.732;2023-07-31T04:09:02;96161.88;;;16.80;100.00
74346;BME280;62776;50.518;6.732;2023-07-31T04:11:50;96159.97;;;16.84;100.00
74346;BME280;62776;50.518;6.732;2023-07-31T04:14:37;96167.13;;;16.80;100.00
74346;BME280;62776;50.518;6.732;2023-07-31T04:17:25;96162.75;;;16.81;100.00
74346;BME280;62776;50.518;6.732;2023-07-31T04:20:12;96161.75;;;16.83;100.00
74346;BME280;62776;50.518;6.732;2023-07-31T04:23:00;96158.19;;;16.84;100.00
74346;BME280;62776;50.518;6.732;2023-07-31T04:25:48;96159.13;;;16.83;100.00
74346;BME280;62776;50.518;6.732;2023-07-31T04:28:36;96155.41;;;16.89;100.00
74346;BME280;62776;50.518;6.732;2023-07-31T04:31:22;96154.53;;;16.88;100.00
74346;BME280;62776;50.518;6.732;2023-07-31T04:34:09;96143.91;;;16.91;100.00
74346;BME280;62776;50.518;6.732;2023-07-31T04:36:55;96150.03;;;16.92;100.00
74346;BME280;62776;50.518;6.732;2023-07-31T04:39:44;96150.84;;;16.92;100.00
74346;BME280;62776;50.518;6.732;2023-07-31T04:42:30;96157.03;;;16.91;100.00
74346;BME280;62776;50.518;6.732;2023-07-31T04:45:18;96157.81;;;16.93;100.00
74346;BME280;62776;50.518;6.732;2023-07-31T04:48:05;96151.78;;;16.91;100.00
74346;BME280;62776;50.518;6.732;2023-07-31T04:50:54;96149.28;;;16.88;100.00
74346;BME280;62776;50.518;6.732;2023-07-31T04:53:42;96152.56;;;16.93;100.00
74346;BME280;62776;50.518;6.732;2023-07-31T04:56:29;96142.06;;;16.93;100.00
74346;BME280;62776;50.518;6.732;2023-07-31T04:59:15;96137.56;;;16.97;100.00
74346;BME280;62776;50.518;6.732;2023-07-31T05:02:03;96121.81;;;16.97;100.00
74346;BME280;62776;50.518;6.732;2023-07-31T05:04:49;96120.03;;;16.97;100.00
74346;BME280;62776;50.518;6.732;2023-07-31T05:07:36;96125.34;;;16.96;100.00
74346;BME280;62776;50.518;6.732;2023-07-31T05:10:23;96117.19;;;17.02;100.00
74346;BME280;62776;50.518;6.732;2023-07-31T05:13:11;96117.25;;;17.00;100.00
74346;BME280;62776;50.518;6.732;2023-07-31T05:15:58;96117.94;;;17.05;100.00
74346;BME280;62776;50.518;6.732;2023-07-31T05:18:44;96119.50;;;17.09;100.00
74346;BME280;62776;50.518;6.732;2023-07-31T05:21:31;96118.47;;;17.14;100.00
74346;BME280;62776;50.518;6.732;2023-07-31T05:24:19;96114.78;;;17.18;100.00
74346;BME280;62776;50.518;6.732;2023-07-31T05:27:07;96120.97;;;17.17;100.00
74346;BME280;62776;50.518;6.732;2023-07-31T05:29:53;96111.28;;;17.17;100.00
74346;BME280;62776;50.518;6.732;2023-07-31T05:32:40;96120.81;;;17.20;100.00
74346;BME280;62776;50.518;6.732;2023-07-31T05:35:27;96112.91;;;17.20;100.00
74346;BME280;62776;50.518;6.732;2023-07-31T05:38:14;96099.94;;;17.17;100.00
74346;BME280;62776;50.518;6.732;2023-07-31T05:41:00;96104.53;;;17.11;100.00
74346;BME280;62776;50.518;6.732;2023-07-31T05:43:48;96105.38;;;17.12;100.00
74346;BME280;62776;50.518;6.732;2023-07-31T05:46:34;96099.13;;;17.15;100.00
74346;BME280;62776;50.518;6.732;2023-07-31T05:49:21;96107.09;;;17.13;100.00
74346;BME280;62776;50.518;6.732;2023-07-31T05:52:07;96093.84;;;17.16;100.00
74346;BME280;62776;50.518;6.732;2023-07-31T05:54:55;96093.88;;;17.15;100.00
74346;BME280;62776;50.518;6.732;2023-07-31T05:57:41;96094.75;;;17.15;100.00
74346;BME280;62776;50.518;6.732;2023-07-31T06:00:28;96094.75;;;17.15;100.00
74346;BME280;62776;50.518;6.732;2023-07-31T06:03:14;96091.00;;;17.21;100.00
74346;BME280;62776;50.518;6.732;2023-07-31T06:06:03;96088.31;;;17.22;100.00
74346;BME280;62776;50.518;6.732;2023-07-31T06:08:52;96087.19;;;17.28;100.00
74346;BME280;62776;50.518;6.732;2023-07-31T06:11:39;96074.06;;;17.28;100.00
74346;BME280;62776;50.518;6.732;2023-07-31T06:14:27;96078.63;;;17.23;100.00
74346;BME280;62776;50.518;6.732;2023-07-31T06:17:20;96082.13;;;17.23;100.00
74346;BME280;62776;50.518;6.732;2023-07-31T06:20:08;96069.50;;;17.31;100.00
74346;BME280;62776;50.518;6.732;2023-07-31T06:22:55;96060.50;;;17.37;100.00
74346;BME280;62776;50.518;6.732;2023-07-31T06:25:43;96059.59;;;17.38;100.00
74346;BME280;62776;50.518;6.732;2023-07-31T06:28:30;96037.44;;;17.43;100.00
74346;BME280;62776;50.518;6.732;2023-07-31T06:31:25;96040.00;;;17.45;100.00
74346;BME280;62776;50.518;6.732;2023-07-31T06:34:13;96055.44;;;17.52;100.00
74346;BME280;62776;50.518;6.732;2023-07-31T06:37:01;96051.53;;;17.61;100.00
74346;BME280;62776;50.518;6.732;2023-07-31T06:39:47;96055.88;;;17.62;100.00
74346;BME280;62776;50.518;6.732;2023-07-31T06:42:34;96057.50;;;17.64;100.00
74346;BME280;62776;50.518;6.732;2023-07-31T06:45:21;96049.28;;;17.72;100.00
74346;BME280;62776;50.518;6.732;2023-07-31T06:48:14;96053.38;;;17.78;100.00
74346;BME280;62776;50.518;6.732;2023-07-31T06:51:06;96038.19;;;17.84;100.00
74346;BME280;62776;50.518;6.732;2023-07-31T06:53:54;96048.72;;;17.84;100.00
74346;BME280;62776;50.518;6.732;2023-07-31T06:56:40;96052.25;;;17.83;100.00
74346;BME280;62776;50.518;6.732;2023-07-31T06:59:27;96044.03;;;17.91;100.00
74346;BME280;62776;50.518;6.732;2023-07-31T07:02:13;96043.72;;;17.97;100.00
74346;BME280;62776;50.518;6.732;2023-07-31T07:05:01;96036.31;;;18.05;100.00
74346;BME280;62776;50.518;6.732;2023-07-31T07:07:50;96029.63;;;18.16;100.00
74346;BME280;62776;50.518;6.732;2023-07-31T07:10:39;96034.00;;;18.35;100.00
74346;BME280;62776;50.518;6.732;2023-07-31T07:13:27;96037.25;;;18.40;100.00
74346;BME280;62776;50.518;6.732;2023-07-31T07:16:13;96024.25;;;18.37;100.00
74346;BME280;62776;50.518;6.732;2023-07-31T07:19:00;96012.94;;;18.35;100.00
74346;BME280;62776;50.518;6.732;2023-07-31T07:21:50;96023.00;;;18.26;100.00
74346;BME280;62776;50.518;6.732;2023-07-31T07:24:39;96022.16;;;18.26;100.00
74346;BME280;62776;50.518;6.732;2023-07-31T07:27:30;96013.69;;;18.19;100.00
74346;BME280;62776;50.518;6.732;2023-07-31T07:30:30;96020.53;;;18.23;100.00
74346;BME280;62776;50.518;6.732;2023-07-31T07:33:17;96026.47;;;18.27;100.00
74346;BME280;62776;50.518;6.732;2023-07-31T07:36:08;96027.88;;;18.34;100.00
74346;BME280;62776;50.518;6.732;2023-07-31T07:38:55;96023.38;;;18.36;100.00
74346;BME280;62776;50.518;6.732;2023-07-31T07:41:44;96033.16;;;18.34;100.00
74346;BME280;62776;50.518;6.732;2023-07-31T07:44:33;96036.53;;;18.36;100.00
74346;BME280;62776;50.518;6.732;2023-07-31T07:47:19;96025.16;;;18.36;100.00
74346;BME280;62776;50.518;6.732;2023-07-31T07:50:06;96018.03;;;18.38;100.00
74346;BME280;62776;50.518;6.732;2023-07-31T07:53:00;96017.88;;;18.41;100.00
74346;BME280;62776;50.518;6.732;2023-07-31T07:55:52;96012.56;;;18.42;100.00
74346;BME280;62776;50.518;6.732;2023-07-31T07:58:41;96014.50;;;18.39;100.00
74346;BME280;62776;50.518;6.732;2023-07-31T08:01:37;96003.66;;;18.45;100.00
74346;BME280;62776;50.518;6.732;2023-07-31T08:04:28;96008.38;;;18.38;100.00
74346;BME280;62776;50.518;6.732;2023-07-31T08:07:16;96015.09;;;18.44;100.00
74346;BME280;62776;50.518;6.732;2023-07-31T08:10:05;96009.38;;;18.36;100.00
74346;BME280;62776;50.518;6.732;2023-07-31T08:12:52;96004.72;;;18.23;100.00
74346;BME280;62776;50.518;6.732;2023-07-31T08:15:40;95996.44;;;18.31;100.00
74346;BME280;62776;50.518;6.732;2023-07-31T08:18:28;96008.31;;;18.40;100.00
74346;BME280;62776;50.518;6.732;2023-07-31T08:21:14;96008.34;;;18.57;100.00
74346;BME280;62776;50.518;6.732;2023-07-31T08:24:03;96016.72;;;18.65;100.00
74346;BME280;62776;50.518;6.732;2023-07-31T08:26:57;96017.03;;;18.76;100.00
74346;BME280;62776;50.518;6.732;2023-07-31T08:29:49;96017.16;;;18.90;100.00
74346;BME280;62776;50.518;6.732;2023-07-31T08:36:23;96009.78;;;18.97;100.00
74346;BME280;62776;50.518;6.732;2023-07-31T08:39:10;96005.22;;;19.00;100.00
74346;BME280;62776;50.518;6.732;2023-07-31T08:42:01;96011.50;;;18.98;100.00
74346;BME280;62776;50.518;6.732;2023-07-31T08:44:50;96012.19;;;19.01;100.00
74346;BME280;62776;50.518;6.732;2023-07-31T08:47:50;95995.75;;;18.96;100.00
74346;BME280;62776;50.518;6.732;2023-07-31T08:50:39;95992.97;;;18.99;100.00
74346;BME280;62776;50.518;6.732;2023-07-31T08:53:36;95985.84;;;19.01;100.00
74346;BME280;62776;50.518;6.732;2023-07-31T08:56:26;95982.88;;;19.07;100.00
74346;BME280;62776;50.518;6.732;2023-07-31T08:59:17;95980.53;;;19.18;100.00
74346;BME280;62776;50.518;6.732;2023-07-31T09:02:09;95966.78;;;19.29;100.00
74346;BME280;62776;50.518;6.732;2023-07-31T09:05:03;95978.00;;;19.17;100.00
74346;BME280;62776;50.518;6.732;2023-07-31T09:07:58;95967.03;;;19.57;100.00
74346;BME280;62776;50.518;6.732;2023-07-31T09:10:49;95978.94;;;19.80;98.12
74346;BME280;62776;50.518;6.732;2023-07-31T09:13:36;95964.13;;;19.93;95.81
74346;BME280;62776;50.518;6.732;2023-07-31T09:16:29;95975.03;;;19.87;93.71
74346;BME280;62776;50.518;6.732;2023-07-31T09:19:36;95986.06;;;20.09;97.92
74346;BME280;62776;50.518;6.732;2023-07-31T09:22:33;95979.16;;;20.22;88.06
74346;BME280;62776;50.518;6.732;2023-07-31T09:25:29;95967.19;;;20.32;90.82
74346;BME280;62776;50.518;6.732;2023-07-31T09:28:31;95969.66;;;20.35;90.03
74346;BME280;62776;50.518;6.732;2023-07-31T09:31:32;95982.06;;;20.33;91.15
74346;BME280;62776;50.518;6.732;2023-07-31T09:34:19;95987.78;;;20.55;89.49
74346;BME280;62776;50.518;6.732;2023-07-31T09:37:05;95989.16;;;20.77;90.08
74346;BME280;62776;50.518;6.732;2023-07-31T09:39:53;95990.50;;;20.84;86.43
74346;BME280;62776;50.518;6.732;2023-07-31T09:42:44;95983.13;;;20.75;86.43
74346;BME280;62776;50.518;6.732;2023-07-31T09:45:41;96003.91;;;20.51;87.05
74346;BME280;62776;50.518;6.732;2023-07-31T09:48:30;95987.63;;;20.58;86.70
74346;BME280;62776;50.518;6.732;2023-07-31T09:51:27;95997.78;;;20.50;86.29
74346;BME280;62776;50.518;6.732;2023-07-31T09:54:19;96000.13;;;20.55;85.82
74346;BME280;62776;50.518;6.732;2023-07-31T09:57:09;95989.50;;;20.56;85.14
74346;BME280;62776;50.518;6.732;2023-07-31T09:59:56;95992.72;;;20.62;85.46
74346;BME280;62776;50.518;6.732;2023-07-31T10:02:59;95992.72;;;20.62;84.20
74346;BME280;62776;50.518;6.732;2023-07-31T10:05:50;95992.31;;;20.53;84.38
74346;BME280;62776;50.518;6.732;2023-07-31T10:08:48;95990.81;;;20.34;85.84
74346;BME280;62776;50.518;6.732;2023-07-31T10:11:50;95990.66;;;20.21;88.91
74346;BME280;62776;50.518;6.732;2023-07-31T10:14:45;96001.22;;;20.21;91.41
74346;BME280;62776;50.518;6.732;2023-07-31T10:17:34;95993.47;;;20.18;91.35
74346;BME280;62776;50.518;6.732;2023-07-31T10:20:28;95994.31;;;20.19;93.00
74346;BME280;62776;50.518;6.732;2023-07-31T10:23:17;95989.97;;;20.18;94.23
74346;BME280;62776;50.518;6.732;2023-07-31T10:26:11;95985.72;;;20.15;93.70
74346;BME280;62776;50.518;6.732;2023-07-31T10:28:58;95980.63;;;20.12;93.81
74346;BME280;62776;50.518;6.732;2023-07-31T10:31:47;95986.59;;;20.31;92.71
74346;BME280;62776;50.518;6.732;2023-07-31T10:34:37;95962.91;;;20.59;93.42
74346;BME280;62776;50.518;6.732;2023-07-31T10:40:19;95990.22;;;20.88;91.03
74346;BME280;62776;50.518;6.732;2023-07-31T10:43:26;95983.09;;;20.90;87.76
74346;BME280;62776;50.518;6.732;2023-07-31T10:46:15;95982.25;;;21.04;88.80
74346;BME280;62776;50.518;6.732;2023-07-31T10:49:03;95983.59;;;21.11;88.91
74346;BME280;62776;50.518;6.732;2023-07-31T10:51:49;95994.44;;;21.06;87.42
74346;BME280;62776;50.518;6.732;2023-07-31T10:54:37;95995.69;;;21.15;92.31
74346;BME280;62776;50.518;6.732;2023-07-31T10:57:35;96000.69;;;21.20;88.63
74346;BME280;62776;50.518;6.732;2023-07-31T11:00:29;96001.75;;;21.17;89.11
74346;BME280;62776;50.518;6.732;2023-07-31T11:03:20;95994.28;;;21.09;89.27
74346;BME280;62776;50.518;6.732;2023-07-31T11:06:10;95989.47;;;21.30;90.70
74346;BME280;62776;50.518;6.732;2023-07-31T11:08:58;95991.91;;;21.33;90.17
74346;BME280;62776;50.518;6.732;2023-07-31T11:12:03;95973.03;;;21.25;90.21
74346;BME280;62776;50.518;6.732;2023-07-31T11:14:56;95993.72;;;20.89;92.16
74346;BME280;62776;50.518;6.732;2023-07-31T11:17:44;95980.22;;;21.09;92.61
74346;BME280;62776;50.518;6.732;2023-07-31T11:20:32;95979.31;;;20.94;97.95
74346;BME280;62776;50.518;6.732;2023-07-31T11:23:21;95974.28;;;20.76;96.71
74346;BME280;62776;50.518;6.732;2023-07-31T11:26:11;95961.31;;;20.57;98.46
74346;BME280;62776;50.518;6.732;2023-07-31T11:28:59;95967.84;;;20.66;100.00
74346;BME280;62776;50.518;6.732;2023-07-31T11:31:46;95965.38;;;20.63;99.21
74346;BME280;62776;50.518;6.732;2023-07-31T11:34:52;95960.13;;;20.47;99.60
74346;BME280;62776;50.518;6.732;2023-07-31T11:37:42;95964.19;;;20.52;100.00
74346;BME280;62776;50.518;6.732;2023-07-31T11:40:40;95966.81;;;20.68;99.55
74346;BME280;62776;50.518;6.732;2023-07-31T11:43:31;95957.50;;;20.91;100.00
74346;BME280;62776;50.518;6.732;2023-07-31T11:46:24;95956.06;;;20.85;97.75
74346;BME280;62776;50.518;6.732;2023-07-31T11:49:13;95949.75;;;20.88;99.66
74346;BME280;62776;50.518;6.732;2023-07-31T11:52:06;95938.66;;;21.25;100.00
74346;BME280;62776;50.518;6.732;2023-07-31T11:54:56;95933.72;;;21.61;96.65
74346;BME280;62776;50.518;6.732;2023-07-31T11:57:46;95934.25;;;21.81;93.06
74346;BME280;62776;50.518;6.732;2023-07-31T12:00:41;95921.28;;;21.90;89.96
74346;BME280;62776;50.518;6.732;2023-07-31T12:03:30;95928.53;;;22.01;92.15
74346;BME280;62776;50.518;6.732;2023-07-31T12:06:19;95922.31;;;22.14;89.02
74346;BME280;62776;50.518;6.732;2023-07-31T12:09:10;95918.22;;;22.23;89.10
74346;BME280;62776;50.518;6.732;2023-07-31T12:11:56;95916.25;;;22.39;87.95
74346;BME280;62776;50.518;6.732;2023-07-31T12:14:44;95912.78;;;22.51;86.40
74346;BME280;62776;50.518;6.732;2023-07-31T12:17:32;95925.31;;;22.49;86.46
74346;BME280;62776;50.518;6.732;2023-07-31T12:20:20;95912.66;;;22.40;84.24
74346;BME280;62776;50.518;6.732;2023-07-31T12:23:06;95915.69;;;22.21;84.91
74346;BME280;62776;50.518;6.732;2023-07-31T12:26:24;95920.63;;;21.87;85.34
74346;BME280;62776;50.518;6.732;2023-07-31T12:29:22;95930.56;;;21.83;88.84
74346;BME280;62776;50.518;6.732;2023-07-31T12:35:13;95937.41;;;21.59;90.34
74346;BME280;62776;50.518;6.732;2023-07-31T12:38:06;95947.53;;;21.52;91.34
74346;BME280;62776;50.518;6.732;2023-07-31T12:40:53;95943.00;;;21.40;91.65
74346;BME280;62776;50.518;6.732;2023-07-31T12:43:41;95953.88;;;21.22;91.94
74346;BME280;62776;50.518;6.732;2023-07-31T12:46:29;95942.13;;;20.97;92.02
74346;BME280;62776;50.518;6.732;2023-07-31T12:49:16;95942.09;;;20.83;94.51
74346;BME280;62776;50.518;6.732;2023-07-31T12:52:11;95935.50;;;20.76;95.58
74346;BME280;62776;50.518;6.732;2023-07-31T12:55:09;95928.22;;;20.80;95.94
74346;BME280;62776;50.518;6.732;2023-07-31T12:57:57;95922.00;;;20.81;96.11
74346;BME280;62776;50.518;6.732;2023-07-31T13:00:43;95921.44;;;20.76;96.04
74346;BME280;62776;50.518;6.732;2023-07-31T13:04:00;95929.31;;;20.47;95.94
74346;BME280;62776;50.518;6.732;2023-07-31T13:06:57;95927.88;;;20.42;98.27
74346;BME280;62776;50.518;6.732;2023-07-31T13:16:49;95921.78;;;20.55;100.00
74346;BME280;62776;50.518;6.732;2023-07-31T13:20:04;95927.25;;;20.52;99.35
74346;BME280;62776;50.518;6.732;2023-07-31T13:22:54;95910.25;;;20.42;100.00
74346;BME280;62776;50.518;6.732;2023-07-31T13:25:44;95907.91;;;20.38;100.00
74346;BME280;62776;50.518;6.732;2023-07-31T13:28:50;95899.97;;;20.22;100.00
74346;BME280;62776;50.518;6.732;2023-07-31T13:31:44;95895.66;;;20.21;100.00
74346;BME280;62776;50.518;6.732;2023-07-31T13:34:31;95893.00;;;20.21;100.00
74346;BME280;62776;50.518;6.732;2023-07-31T13:37:17;95884.84;;;20.26;100.00
74346;BME280;62776;50.518;6.732;2023-07-31T13:40:10;95876.56;;;20.32;100.00
74346;BME280;62776;50.518;6.732;2023-07-31T13:42:59;95875.00;;;20.43;100.00
74346;BME280;62776;50.518;6.732;2023-07-31T13:45:53;95875.94;;;20.42;100.00
74346;BME280;62776;50.518;6.732;2023-07-31T13:48:39;95876.22;;;20.38;100.00
74346;BME280;62776;50.518;6.732;2023-07-31T13:51:26;95861.13;;;20.40;100.00
74346;BME280;62776;50.518;6.732;2023-07-31T13:54:23;95870.25;;;20.34;100.00
74346;BME280;62776;50.518;6.732;2023-07-31T13:57:09;95879.56;;;20.26;100.00
74346;BME280;62776;50.518;6.732;2023-07-31T13:59:56;95891.91;;;20.25;100.00
74346;BME280;62776;50.518;6.732;2023-07-31T14:02:42;95887.75;;;20.21;100.00
74346;BME280;62776;50.518;6.732;2023-07-31T14:05:34;95886.19;;;20.17;100.00
74346;BME280;62776;50.518;6.732;2023-07-31T14:08:21;95887.50;;;20.10;100.00
74346;BME280;62776;50.518;6.732;2023-07-31T14:11:09;95882.47;;;20.06;100.00
74346;BME280;62776;50.518;6.732;2023-07-31T14:13:56;95889.25;;;19.95;100.00
74346;BME280;62776;50.518;6.732;2023-07-31T14:16:44;95883.47;;;19.89;100.00
74346;BME280;62776;50.518;6.732;2023-07-31T14:19:30;95892.72;;;19.96;100.00
74346;BME280;62776;50.518;6.732;2023-07-31T14:22:29;95892.97;;;19.91;100.00
74346;BME280;62776;50.518;6.732;2023-07-31T14:25:17;95881.44;;;19.94;100.00
74346;BME280;62776;50.518;6.732;2023-07-31T14:28:03;95872.72;;;19.92;100.00
74346;BME280;62776;50.518;6.732;2023-07-31T14:30:50;95873.00;;;19.87;100.00
74346;BME280;62776;50.518;6.732;2023-07-31T14:33:37;95887.56;;;19.79;100.00
74346;BME280;62776;50.518;6.732;2023-07-31T14:36:23;95882.63;;;19.73;100.00
74346;BME280;62776;50.518;6.732;2023-07-31T14:39:21;95877.28;;;19.74;100.00
74346;BME280;62776;50.518;6.732;2023-07-31T14:42:08;95877.78;;;19.81;100.00
74346;BME280;62776;50.518;6.732;2023-07-31T14:44:56;95871.75;;;19.79;100.00
74346;BME280;62776;50.518;6.732;2023-07-31T14:47:43;95864.97;;;19.75;100.00
74346;BME280;62776;50.518;6.732;2023-07-31T14:50:30;95877.00;;;19.79;100.00
74346;BME280;62776;50.518;6.732;2023-07-31T14:53:16;95892.00;;;19.63;100.00
74346;BME280;62776;50.518;6.732;2023-07-31T14:56:05;95886.75;;;19.63;100.00
74346;BME280;62776;50.518;6.732;2023-07-31T14:58:54;95883.69;;;19.55;100.00
74346;BME280;62776;50.518;6.732;2023-07-31T15:01:40;95881.56;;;19.61;100.00
74346;BME280;62776;50.518;6.732;2023-07-31T15:04:27;95869.22;;;19.62;100.00
74346;BME280;62776;50.518;6.732;2023-07-31T15:07:20;95883.69;;;19.55;100.00
74346;BME280;62776;50.518;6.732;2023-07-31T15:10:07;95865.81;;;19.60;100.00
74346;BME280;62776;50.518;6.732;2023-07-31T15:13:02;95847.03;;;19.66;100.00
74346;BME280;62776;50.518;6.732;2023-07-31T15:15:50;95840.38;;;19.59;100.00
74346;BME280;62776;50.518;6.732;2023-07-31T15:18:50;95838.13;;;19.53;100.00
74346;BME280;62776;50.518;6.732;2023-07-31T15:21:45;95834.09;;;19.46;100.00
74346;BME280;62776;50.518;6.732;2023-07-31T15:24:33;95821.63;;;19.49;100.00
74346;BME280;62776;50.518;6.732;2023-07-31T15:27:20;95834.78;;;19.49;100.00
74346;BME280;62776;50.518;6.732;2023-07-31T15:30:07;95821.44;;;19.36;100.00
74346;BME280;62776;50.518;6.732;2023-07-31T15:32:55;95819.22;;;19.29;100.00
74346;BME280;62776;50.518;6.732;2023-07-31T15:35:54;95814.97;;;19.26;100.00
74346;BME280;62776;50.518;6.732;2023-07-31T15:38:42;95813.34;;;19.24;100.00
74346;BME280;62776;50.518;6.732;2023-07-31T15:41:30;95812.75;;;19.19;100.00
74346;BME280;62776;50.518;6.732;2023-07-31T15:44:18;95797.97;;;19.16;100.00
74346;BME280;62776;50.518;6.732;2023-07-31T15:47:12;95798.31;;;19.10;100.00
74346;BME280;62776;50.518;6.732;2023-07-31T15:50:00;95804.50;;;19.09;100.00
74346;BME280;62776;50.518;6.732;2023-07-31T15:52:47;95797.28;;;19.13;100.00
74346;BME280;62776;50.518;6.732;2023-07-31T15:55:34;95793.41;;;19.20;100.00
74346;BME280;62776;50.518;6.732;2023-07-31T15:58:23;95797.97;;;19.16;100.00
74346;BME280;62776;50.518;6.732;2023-07-31T16:01:10;95784.63;;;19.19;100.00
74346;BME280;62776;50.518;6.732;2023-07-31T16:03:56;95774.97;;;19.20;100.00
74346;BME280;62776;50.518;6.732;2023-07-31T16:06:44;95771.81;;;19.13;100.00
74346;BME280;62776;50.518;6.732;2023-07-31T16:09:47;95767.03;;;19.04;100.00
74346;BME280;62776;50.518;6.732;2023-07-31T16:12:49;95765.34;;;18.88;100.00
74346;BME280;62776;50.518;6.732;2023-07-31T16:15:37;95765.03;;;18.78;100.00
74346;BME280;62776;50.518;6.732;2023-07-31T16:18:28;95761.25;;;18.51;100.00
74346;BME280;62776;50.518;6.732;2023-07-31T16:21:14;95750.06;;;18.78;100.00
74346;BME280;62776;50.518;6.732;2023-07-31T16:24:02;95749.81;;;18.83;100.00
74346;BME280;62776;50.518;6.732;2023-07-31T16:27:00;95752.78;;;18.77;100.00
74346;BME280;62776;50.518;6.732;2023-07-31T16:29:48;95736.56;;;18.69;100.00
74346;BME280;62776;50.518;6.732;2023-07-31T16:32:36;95728.81;;;18.66;100.00
74346;BME280;62776;50.518;6.732;2023-07-31T16:35:31;95707.06;;;18.62;100.00
74346;BME280;62776;50.518;6.732;2023-07-31T16:38:17;95704.97;;;18.53;100.00
74346;BME280;62776;50.518;6.732;2023-07-31T16:41:09;95703.97;;;18.39;100.00
74346;BME280;62776;50.518;6.732;2023-07-31T16:43:55;95700.16;;;18.28;100.00
74346;BME280;62776;50.518;6.732;2023-07-31T16:46:41;95696.50;;;18.15;100.00
74346;BME280;62776;50.518;6.732;2023-07-31T16:49:28;95690.28;;;18.16;100.00
74346;BME280;62776;50.518;6.732;2023-07-31T16:52:16;95688.50;;;18.17;100.00
74346;BME280;62776;50.518;6.732;2023-07-31T16:55:03;95682.94;;;18.23;100.00
74346;BME280;62776;50.518;6.732;2023-07-31T16:57:49;95667.84;;;18.26;100.00
74346;BME280;62776;50.518;6.732;2023-07-31T17:00:35;95678.53;;;18.23;100.00
74346;BME280;62776;50.518;6.732;2023-07-31T17:03:27;95668.22;;;18.19;100.00
74346;BME280;62776;50.518;6.732;2023-07-31T17:06:35;95671.28;;;18.11;100.00
74346;BME280;62776;50.518;6.732;2023-07-31T17:09:24;95656.03;;;18.18;100.00
74346;BME280;62776;50.518;6.732;2023-07-31T17:12:13;95654.41;;;18.15;100.00
74346;BME280;62776;50.518;6.732;2023-07-31T17:15:01;95659.56;;;18.01;100.00
74346;BME280;62776;50.518;6.732;2023-07-31T17:17:51;95656.41;;;17.95;100.00
74346;BME280;62776;50.518;6.732;2023-07-31T17:20:45;95645.03;;;17.94;100.00
74346;BME280;62776;50.518;6.732;2023-07-31T17:23:32;95648.69;;;17.92;100.00
74346;BME280;62776;50.518;6.732;2023-07-31T17:26:30;95643.66;;;17.87;100.00
74346;BME280;62776;50.518;6.732;2023-07-31T17:29:17;95641.97;;;17.86;100.00
74346;BME280;62776;50.518;6.732;2023-07-31T17:32:12;95650.09;;;17.82;100.00
74346;BME280;62776;50.518;6.732;2023-07-31T17:35:00;95637.38;;;17.74;100.00
74346;BME280;62776;50.518;6.732;2023-07-31T17:37:54;95641.06;;;17.70;100.00
74346;BME280;62776;50.518;6.732;2023-07-31T17:40:41;95646.34;;;17.70;100.00
74346;BME280;62776;50.518;6.732;2023-07-31T17:43:37;95634.97;;;17.69;100.00
74346;BME280;62776;50.518;6.732;2023-07-31T17:46:25;95644.03;;;17.64;100.00
74346;BME280;62776;50.518;6.732;2023-07-31T17:49:19;95633.81;;;17.58;100.00
74346;BME280;62776;50.518;6.732;2023-07-31T17:52:08;95631.81;;;17.46;100.00
74346;BME280;62776;50.518;6.732;2023-07-31T17:55:01;95635.69;;;17.39;100.00
74346;BME280;62776;50.518;6.732;2023-07-31T17:57:47;95634.16;;;17.35;100.00
74346;BME280;62776;50.518;6.732;2023-07-31T18:00:43;95629.31;;;17.27;100.00
74346;BME280;62776;50.518;6.732;2023-07-31T18:03:31;95632.78;;;17.28;100.00
74346;BME280;62776;50.518;6.732;2023-07-31T18:06:25;95630.91;;;17.30;100.00
74346;BME280;62776;50.518;6.732;2023-07-31T18:09:11;95631.84;;;17.29;100.00
74346;BME280;62776;50.518;6.732;2023-07-31T18:11:57;95627.44;;;17.29;100.00
74346;BME280;62776;50.518;6.732;2023-07-31T18:14:44;95626.97;;;17.21;100.00
74346;BME280;62776;50.518;6.732;2023-07-31T18:17:31;95624.91;;;17.10;100.00
74346;BME280;62776;50.518;6.732;2023-07-31T18:20:18;95619.88;;;17.06;100.00
74346;BME280;62776;50.518;6.732;2023-07-31T18:23:12;95612.47;;;16.97;100.00
74346;BME280;62776;50.518;6.732;2023-07-31T18:26:06;95627.22;;;16.99;100.00